University Heights, New York
Current Conditions -  °F | °C
As of 6:51 AM on Monday 20 Oct 2014 (Local Time) from KNYC Reporting Station
Clear Clear  
Wind Chill: 43°   Ceiling: Unl
Heat Index: 43°   Visibility: 10mi
Dew Point: 29°   Wind: 3mph
Humidity: 58%   Direction: 250°WSW
Pressure: 30.12"   Gusts: NA
Location:  40.8376°N, 73.9236°W
Report Text: KNYC 201051Z AUTO 25003KT 10SM CLR 06/M02 A3012 RMK AO2 SLP190 T00611017 $
Loading
Personal Weather Stations






























Interactive Weather Map
Tropical Storm Tracking
New forecast layout! Learn more

10-Day Weather Forecast

Advertisements
Track Severe Weather on mobile